Home > Products > Valid Products > TAF

000
FTUS41 KGYX 292000 AAA
TAFPWM
TAF AMD
KPWM 292009Z 2920/3018 15009KT P6SM BKN050
     FM300000 20004KT P6SM SKC
     FM301400 15007KT P6SM SCT050 BKN200=



000
FTUS41 KGYX 291700
TAFCON
TAF
KCON 291728Z 2918/3018 31010KT P6SM SCT045
     FM292200 VRB03KT P6SM SKC
     FM301400 20004KT P6SM BKN060=



000
FTUS41 KGYX 291700
TAFPWM
TAF
KPWM 291728Z 2918/3018 29010KT P6SM BKN035
     FM292300 21005KT P6SM SKC
     FM301400 15008KT P6SM BKN060=



000
FTUS41 KGYX 291700
TAFPSM
TAF
KPSM 291728Z 2918/3018 28010KT P6SM SCT040
     FM292200 20004KT P6SM SKC
     FM301400 16008KT P6SM SCT060=



000
FTUS41 KGYX 291700
TAFLEB
TAF
KLEB 291728Z 2918/3018 30008KT P6SM BKN045
     FM292200 VRB03KT P6SM SKC
     FM300800 00000KT 1SM BR OVC003
     FM301300 VRB03KT P6SM SCT010
     FM301500 21004KT P6SM BKN060=



000
FTUS41 KGYX 291700
TAFAUG
TAF
KAUG 291728Z 2918/3018 30010KT P6SM BKN050
     FM292200 21004KT P6SM SKC
     FM301400 13005KT P6SM BKN060=



000
FTUS41 KGYX 291100
TAFAUG
TAF
KAUG 291120Z 2912/3012 27007KT P6SM SKC
     FM291300 30010KT P6SM SCT040
     FM291900 27007KT P6SM SKC=



000
FTUS41 KGYX 291100
TAFPWM
TAF
KPWM 291120Z 2912/3012 28009KT P6SM SCT050
     FM292200 28006KT P6SM SKC=



000
FTUS41 KGYX 291100
TAFLEB
TAF
KLEB 291120Z 2912/3012 32006KT P6SM BKN030
     FM291300 30008KT P6SM SCT040
     FM292200 VRB03KT P6SM SKC=



000
FTUS41 KGYX 291100
TAFPSM
TAF
KPSM 291120Z 2912/3012 28010KT P6SM SCT050
     FM292200 20004KT P6SM SKC=



000
FTUS41 KGYX 291100
TAFCON
TAF
KCON 291120Z 2912/3012 31010KT P6SM SCT050
     FM292200 VRB03KT P6SM SKC=



000
FTUS41 KGYX 291000 AAC
TAFPWM
TAF AMD
KPWM 291044Z 2911/3006 26005KT P6SM BKN045
     FM291200 28009KT P6SM SCT050=



000
FTUS41 KGYX 290800 AAA
TAFLEB
TAF AMD
KLEB 290851Z 2909/3006 32006KT P6SM SCT017 BKN030
      TEMPO 2909/2913 BKN017
     FM291300 30008KT P6SM SCT040
     FM292200 VRB03KT P6SM SKC=



000
FTUS41 KGYX 290800 AAB
TAFAUG
TAF AMD
KAUG 290851Z 2909/3006 27004KT P6SM BKN030
     FM291100 27007KT P6SM SKC
     FM291300 30010KT P6SM SCT040
     FM291900 27007KT P6SM SKC=



000
FTUS41 KGYX 290800 AAA
TAFCON
TAF AMD
KCON 290851Z 2909/3006 28006KT P6SM BKN025
      TEMPO 2909/2912 SCT025
     FM291200 31010KT P6SM SCT050
     FM292200 VRB03KT P6SM SKC=



000
FTUS41 KGYX 290800 AAA
TAFPSM
TAF AMD
KPSM 290851Z 2909/3006 27006KT P6SM SCT045
     FM291200 28010KT P6SM SCT050
     FM292200 20004KT P6SM SKC=



000
FTUS41 KGYX 290800 AAB
TAFPWM
TAF AMD
KPWM 290851Z 2909/3006 27005KT P6SM BKN020
      TEMPO 2909/2912 SCT020
     FM291200 28009KT P6SM SCT050=



000
FTUS41 KGYX 290800 AAA
TAFAUG
TAF AMD
KAUG 290835Z 2909/3006 27004KT P6SM BKN030
     FM291100 27007KT P6SM SKC
     FM291300 30010KT P6SM SCT040
     FM291900 27007KT P6SM SKC=



000
FTUS41 KGYX 290800 AAA
TAFPWM
TAF AMD
KPWM 290834Z 2909/3006 24005KT P6SM BKN020
      TEMPO 2909/2912 SCT020
     FM291200 28009KT P6SM SCT050=



000
FTUS41 KGYX 290500
TAFPWM
TAF
KPWM 290520Z 2906/3006 24005KT P6SM SKC
     FM291200 28009KT P6SM SCT050=



000
FTUS41 KGYX 290500
TAFCON
TAF
KCON 290520Z 2906/3006 29008KT P6SM BKN030
     FM290800 28006KT P6SM SCT070
     FM291300 31010KT P6SM SCT050
     FM292200 VRB03KT P6SM SKC=



000
FTUS41 KGYX 290500
TAFPSM
TAF
KPSM 290520Z 2906/3006 24006KT P6SM BKN045
     FM291200 28010KT P6SM SCT050
     FM292200 20004KT P6SM SKC=



000
FTUS41 KGYX 290500
TAFAUG
TAF
KAUG 290520Z 2906/3006 24004KT 2SM BR BKN003
     FM290900 22005KT P6SM SKC
     FM291300 30010KT P6SM SCT040
     FM291900 27007KT P6SM SKC=



000
FTUS41 KGYX 290500
TAFLEB
TAF
KLEB 290520Z 2906/3006 32006KT P6SM SCT020 BKN040
      TEMPO 2906/2910 BKN020
     FM291300 30008KT P6SM SCT040
     FM292200 VRB03KT P6SM SKC=



000
FTUS41 KGYX 290500 AAB
TAFCON
TAF AMD
KCON 290508Z 2905/2924 29005KT P6SM BKN030
     FM290800 28006KT P6SM SCT070
      TEMPO 2908/2911 4SM BR
     FM291300 31010KT P6SM SCT050=



000
FTUS41 KGYX 290400 AAB
TAFAUG
TAF AMD
KAUG 290441Z 2905/2924 22005KT P6SM SKC
     FM291300 30010KT P6SM BKN040
     FM291900 27007KT P6SM SKC=



000
FTUS41 KGYX 290400 AAE
TAFPWM
TAF AMD
KPWM 290422Z 2904/2924 24005KT P6SM SKC
     FM291200 28009KT P6SM SCT050=



000
FTUS41 KGYX 290300 AAA
TAFPSM
TAF AMD
KPSM 290310Z 2903/2924 23006KT P6SM SCT100
      TEMPO 2908/2911 4SM BR
     FM291200 28010KT P6SM SCT050
     FM292000 20007KT P6SM FEW050=



000
FTUS41 KGYX 290300 AAA
TAFLEB
TAF AMD
KLEB 290308Z 2903/2924 32006KT P6SM SCT020 BKN040
      TEMPO 2907/2911 3SM BR BKN020
     FM291300 30008KT P6SM SCT040=



000
FTUS41 KGYX 290300 AAA
TAFCON
TAF AMD
KCON 290305Z 2903/2924 VRB04KT P6SM BKN070
     FM290600 30006KT P6SM SCT070
      TEMPO 2908/2911 4SM BR
     FM291300 31010KT P6SM SCT050=



000
FTUS41 KGYX 290300 AAD
TAFPWM
TAF AMD
KPWM 290302Z 2903/2924 24007KT P6SM SCT004 SCT020
      TEMPO 2903/2907 4SM BR BKN004
     FM291200 28009KT P6SM SCT050=



000
FTUS41 KGYX 290200 AAA
TAFAUG
TAF AMD
KAUG 290220Z 2902/2924 15005KT P6SM SCT002
     FM290400 VRB03KT 1SM BR BKN002
     FM291300 30010KT P6SM BKN040
     FM291900 27007KT P6SM SKC=



000
FTUS41 KGYX 290200 AAC
TAFPWM
TAF AMD
KPWM 290217Z 2902/2924 VRB04KT P6SM FEW015 SCT100
     FM290500 VRB03KT 4SM BR BKN012
     FM291300 28009KT P6SM SCT050=



000
FTUS41 KGYX 290100 AAB
TAFPWM
TAF AMD
KPWM 290122Z 2901/2924 VRB04KT P6SM -SHRA SCT009 OVC015
      TEMPO 2901/2904 BKN009
     FM290400 VRB03KT 4SM BR BKN008
     FM291300 28009KT P6SM SCT050=



000
FTUS41 KGYX 290000 AAA
TAFPWM
TAF AMD
KPWM 290020Z 2900/2924 VRB04KT P6SM -SHRA SCT005 OVC060
     FM290400 VRB03KT 4SM BR BKN015
     FM291300 28008KT P6SM SCT050=



000
FTUS41 KGYX 282300
TAFPWM
TAF
KPWM 282320Z 2900/2924 18007KT 3SM TSRA BR OVC005CB
     FM290200 25005KT 1SM BR OVC002
     FM291100 25005KT 4SM BR SCT005 BKN040
     FM291300 27010KT P6SM BKN040=



000
FTUS41 KGYX 282300
TAFLEB
TAF
KLEB 282320Z 2900/2924 VRB03KT 6SM -SHRA SCT007 OVC035
     FM290300 VRB03KT 1 1/2SM -SHRA BR SCT007 OVC015
     FM290500 VRB03KT 3/4SM BR BKN002
     FM291100 29003KT 3SM BR SCT002 BKN040
     FM291200 31008KT P6SM BKN040=



000
FTUS41 KGYX 282300
TAFCON
TAF
KCON 282320Z 2900/2924 VRB03KT 6SM -SHRA SCT015 OVC050
     FM290300 VRB03KT 1 1/2SM -SHRA BR SCT002 OVC015
     FM290500 VRB03KT 3/4SM BR BKN002
     FM291100 27005KT 3SM BR SCT002 BKN040
     FM291200 29010KT P6SM BKN040=



000
FTUS41 KGYX 282300
TAFPSM
TAF
KPSM 282320Z 2900/2924 16008KT 5SM -SHRA BR SCT015 OVC030
     FM290200 20008KT 2SM -SHRA BR OVC015
     FM290400 25005KT 1SM BR BKN005
     FM291100 25005KT 4SM BR SCT005 BKN040
     FM291200 27010KT P6SM BKN040=



000
FTUS41 KGYX 282300
TAFAUG
TAF
KAUG 282320Z 2900/2924 15008KT 6SM -SHRA BR VCTS OVC008CB
     FM290200 20005KT 1 1/2SM -SHRA BR OVC005
     FM290500 25003KT 1/4SM FG VV001
     FM291200 25005KT 2SM BR SCT001 BKN040
     FM291300 27010KT P6SM BKN040=



000
FTUS41 KGYX 282300 AAD
TAFCON
TAF AMD
KCON 282303Z 2823/2918 VRB05KT P6SM VCSH SCT035 BKN100
     FM290300 22005KT 1 1/2SM -SHRA BR BKN005 OVC015
     FM290500 27003KT 3/4SM BR BKN002
     FM291100 27005KT 3SM BR SCT002 BKN040
     FM291200 29010KT P6SM BKN040=



000
FTUS41 KGYX 282200 AAD
TAFLEB
TAF AMD
KLEB 282250Z 2823/2918 VRB03KT 5SM -SHRA BR SCT020 OVC070
     FM290000 VRB03KT 3SM -SHRA BR BKN010 OVC040
     FM290300 22003KT 1 1/2SM -SHRA BR BKN005 OVC015
     FM290500 27003KT 3/4SM BR BKN002
     FM291100 29003KT 3SM BR SCT002 BKN040
     FM291200 31008KT P6SM BKN040=



000
FTUS41 KGYX 282200 AAE
TAFPWM
TAF AMD
KPWM 282249Z 2823/2918 17010KT 5SM BR OVC005
     FM290000 17010KT 1 1/2SM SHRA BR VCTS BKN005 OVC015CB
     FM290200 20008KT 4SM -SHRA BR SCT005 BKN025
     FM290400 25005KT 1SM BR BKN005
     FM291100 25005KT 4SM BR SCT005 BKN040
     FM291300 27010KT P6SM BKN040=



000
FTUS41 KGYX 282200 AAC
TAFPSM
TAF AMD
KPSM 282249Z 2823/2918 28015G35KT 1 1/2SM +TSRA BR OVC020CB
     FM290000 17010KT 1 1/2SM SHRA BR VCTS BKN010 OVC035CB
     FM290200 20008KT 4SM -SHRA BR SCT005 BKN025
     FM290400 25005KT 1SM BR BKN005
     FM291100 25005KT 4SM BR SCT005 BKN040
     FM291200 27010KT P6SM BKN040=



000
FTUS41 KGYX 282200 AAB
TAFPSM
TAF AMD
KPSM 282226Z 2822/2918 14012KT P6SM SCT040 BKN100
     FM282315 24015G35KT 1 1/2SM +TSRA BR OVC020CB
     FM290000 17010KT 1 1/2SM SHRA BR VCTS BKN010 OVC035CB
     FM290200 20008KT 4SM -SHRA BR SCT005 BKN025
     FM290400 25005KT 1SM BR BKN005
     FM291100 25005KT 4SM BR SCT005 BKN040
     FM291200 27010KT P6SM BKN040=



000
FTUS41 KGYX 282200 AAB
TAFAUG
TAF AMD
KAUG 282203Z 2822/2918 15008KT P6SM SCT005 OVC015
     FM290000 17008KT 1 1/2SM SHRA BR VCTS BKN005 OVC015CB
     FM290300 20005KT 1 1/2SM -SHRA BR OVC005
     FM290500 25003KT 1/4SM FG VV001
     FM291200 25005KT 2SM BR SCT001 BKN040
     FM291300 27010KT P6SM BKN040=



000
FTUS41 KGYX 282200 AAC
TAFLEB
TAF AMD
KLEB 282202Z 2822/2918 VRB03KT 3SM TSRA BR SCT010 BKN040CB OVC100
     FM290000 VRB03KT 3SM -SHRA BR BKN010 OVC040
     FM290300 22003KT 1 1/2SM -SHRA BR BKN005 OVC015
     FM290500 27003KT 3/4SM BR BKN002
     FM291100 29003KT 3SM BR SCT002 BKN040
     FM291200 31008KT P6SM BKN040=



000
FTUS41 KGYX 282200 AAC
TAFCON
TAF AMD
KCON 282200Z 2822/2918 22009KT P6SM -SHRA VCTS SCT035CB BKN100
     FM282300 22009KT 1 1/2SM TSRA SCT015 OVC025CB
     FM290300 22005KT 1 1/2SM -SHRA BR BKN005 OVC015
     FM290500 27003KT 3/4SM BR BKN002
     FM291100 27005KT 3SM BR SCT002 BKN040
     FM291200 29010KT P6SM BKN040=



000
FTUS41 KGYX 282100 AAD
TAFPWM
TAF AMD
KPWM 282158Z 2822/2918 17010KT P6SM BKN010 OVC030
     FM290000 17010KT 1 1/2SM SHRA BR VCTS BKN005 OVC015CB
     FM290200 20008KT 4SM -SHRA BR SCT005 BKN025
     FM290400 25005KT 1SM BR BKN005
     FM291100 25005KT 4SM BR SCT005 BKN040
     FM291300 27010KT P6SM BKN040=



000
FTUS41 KGYX 282100 AAA
TAFAUG
TAF AMD
KAUG 282141Z 2822/2918 16008KT P6SM SCT006 OVC013
     FM282200 15008KT 1 1/2SM SHRA BR VCTS BKN005 OVC015CB
     FM290300 20005KT 1 1/2SM -SHRA BR OVC005
     FM290500 25003KT 1/4SM FG VV001
     FM291200 25005KT 2SM BR SCT001 BKN040
     FM291300 27010KT P6SM BKN040=



000
FTUS41 KGYX 282100 AAB
TAFLEB
TAF AMD
KLEB 282105Z 2821/2918 VRB03KT P6SM VCTS SCT025CB OVC100
     FM282200 19007KT 2SM SHRA BR VCTS BKN025CB OVC050
     FM290300 22003KT 1 1/2SM -SHRA BR BKN005 OVC015
     FM290500 27003KT 3/4SM BR BKN002
     FM291100 29003KT 3SM BR SCT002 BKN040
     FM291200 31008KT P6SM BKN040=



000
FTUS41 KGYX 282100 AAB
TAFCON
TAF AMD
KCON 282104Z 2821/2918 16012KT P6SM VCSH SCT035 BKN100
     FM282200 18010KT 1 1/2SM TSRA SCT015 OVC025CB
     FM290300 22005KT 1 1/2SM -SHRA BR BKN005 OVC015
     FM290500 27003KT 3/4SM BR BKN002
     FM291100 27005KT 3SM BR SCT002 BKN040
     FM291200 29010KT P6SM BKN040=



000
FTUS41 KGYX 282100 AAA
TAFPSM
TAF AMD
KPSM 282103Z 2821/2918 14012KT P6SM SCT040 BKN100
     FM282300 17010KT 1 1/2SM SHRA BR VCTS BKN010 OVC035CB
     FM290200 20008KT 4SM -SHRA BR SCT005 BKN025
     FM290400 25005KT 1SM BR BKN005
     FM291100 25005KT 4SM BR SCT005 BKN040
     FM291200 27010KT P6SM BKN040=



000
FTUS41 KGYX 282100 AAC
TAFPWM
TAF AMD
KPWM 282102Z 2821/2918 17010G20KT P6SM SCT010 BKN050
     FM282300 17010KT 1 1/2SM SHRA BR VCTS BKN005 OVC015CB
     FM290200 20008KT 4SM -SHRA BR SCT005 BKN025
     FM290400 25005KT 1SM BR BKN005
     FM291100 25005KT 4SM BR SCT005 BKN040
     FM291300 27010KT P6SM BKN040=



000
FTUS41 KGYX 282000 AAA
TAFLEB
TAF AMD
KLEB 282005Z 2820/2918 VRB03KT P6SM VCTS SCT009 OVC020CB
     FM282200 19007KT 1 1/2SM SHRA BR VCTS BKN009 OVC015CB
     FM290300 22003KT 1 1/2SM -SHRA BR BKN005 OVC015
     FM290500 27003KT 3/4SM BR BKN002
     FM291100 29003KT 3SM BR SCT002 BKN040
     FM291200 31008KT P6SM BKN040=



000
FTUS41 KGYX 282000 AAA
TAFCON
TAF AMD
KCON 282004Z 2820/2918 16010G18KT P6SM VCSH SCT035 BKN100
     FM282100 18010KT 1 1/2SM SHRA BR VCTS SCT015 OVC025CB
     FM290300 22005KT 1 1/2SM -SHRA BR BKN005 OVC015
     FM290500 27003KT 3/4SM BR BKN002
     FM291100 27005KT 3SM BR SCT002 BKN040
     FM291200 29010KT P6SM BKN040=



000
FTUS41 KGYX 282000 AAB
TAFPWM
TAF AMD
KPWM 282003Z 2820/2918 17010G20KT P6SM SCT009 BKN050
     FM282100 17010KT 1 1/2SM SHRA BR VCTS BKN005 OVC015CB
     FM290200 20008KT 4SM -SHRA BR SCT005 BKN025
     FM290400 25005KT 1SM BR BKN005
     FM291100 25005KT 4SM BR SCT005 BKN040
     FM291300 27010KT P6SM BKN040=



000
FTUS41 KGYX 281900 AAA
TAFPWM
TAF AMD
KPWM 281947Z 2820/2918 17010G20KT 3SM BR VCSH OVC004
     FM282100 17010KT 1 1/2SM SHRA BR VCTS BKN005 OVC015CB
     FM290200 20008KT 4SM -SHRA BR SCT005 BKN025
     FM290400 25005KT 1SM BR BKN005
     FM291100 25005KT 4SM BR SCT005 BKN040
     FM291300 27010KT P6SM BKN040=



000
FTUS41 KGYX 281700
TAFPWM
TAF
KPWM 281726Z 2818/2918 15012KT 1 1/2SM SHRA BR BKN003 OVC015
     FM281900 15012KT 5SM BR VCSH SCT005 BKN015
     FM282100 17010KT 1 1/2SM SHRA BR VCTS BKN005 OVC015CB
     FM290200 20008KT 4SM -SHRA BR SCT005 BKN025
     FM290400 25005KT 1SM BR BKN005
     FM291100 25005KT 4SM BR SCT005 BKN040
     FM291300 27010KT P6SM BKN040=



000
FTUS41 KGYX 281700
TAFCON
TAF
KCON 281726Z 2818/2918 18010KT P6SM VCSH SCT015 BKN040
     FM282000 18010KT 1 1/2SM SHRA BR VCTS BKN015 OVC025CB
     FM290300 22005KT 1 1/2SM -SHRA BR BKN005 OVC015
     FM290500 27003KT 3/4SM BR BKN002
     FM291100 27005KT 3SM BR SCT002 BKN040
     FM291200 29010KT P6SM BKN040=



000
FTUS41 KGYX 281700
TAFAUG
TAF
KAUG 281726Z 2818/2918 11008KT 1 1/2SM SHRA BR BKN005 OVC015
     FM282200 15008KT 1 1/2SM SHRA BR VCTS BKN005 OVC015CB
     FM290300 20005KT 1 1/2SM -SHRA BR OVC005
     FM290500 25003KT 1/4SM FG VV001
     FM291200 25005KT 2SM BR SCT001 BKN040
     FM291300 27010KT P6SM BKN040=



000
FTUS41 KGYX 281700
TAFLEB
TAF
KLEB 281726Z 2818/2918 VRB03KT P6SM VCSH SCT009 BKN015
     FM282000 19007KT 1 1/2SM SHRA BR VCTS BKN009 OVC015CB
     FM290300 22003KT 1 1/2SM -SHRA BR BKN005 OVC015
     FM290500 27003KT 3/4SM BR BKN002
     FM291100 29003KT 3SM BR SCT002 BKN040
     FM291200 31008KT P6SM BKN040=



000
FTUS41 KGYX 281700
TAFPSM
TAF
KPSM 281726Z 2818/2918 14012KT 6SM BR VCSH SCT010 BKN035
     FM282100 17010KT 1 1/2SM SHRA BR VCTS BKN010 OVC035CB
     FM290200 20008KT 4SM -SHRA BR SCT005 BKN025
     FM290400 25005KT 1SM BR BKN005
     FM291100 25005KT 4SM BR SCT005 BKN040
     FM291200 27010KT P6SM BKN040=



000
FTUS41 KGYX 281600 AAG
TAFCON
TAF AMD
KCON 281608Z 2816/2912 14007KT P6SM SCT009 OVC015
     FM281700 16008KT P6SM SCT015 BKN040
     FM282200 20007KT P6SM -SHRA BKN018 OVC030
     FM290400 20006KT P6SM BKN040=



000
FTUS41 KGYX 281600 AAD
TAFPSM
TAF AMD
KPSM 281607Z 2816/2912 15012KT 6SM BR VCSH BKN005 BKN040
     FM281700 15012KT P6SM BKN040
     FM282100 20007KT P6SM -SHRA BKN018 OVC030
     FM290400 20006KT P6SM BKN040=



000
FTUS41 KGYX 281600 AAB
TAFPWM
TAF AMD
KPWM 281606Z 2816/2912 08007KT 1SM TSRA BR BKN005 OVC025CB
     FM281700 15009KT 2SM SHRA BR OVC012
     FM282300 20007KT P6SM -SHRA BKN018 OVC030
     FM290400 20006KT P6SM BKN040=



000
FTUS41 KGYX 281500 AAF
TAFCON
TAF AMD
KCON 281541Z 2816/2912 14007KT P6SM SHRA BKN008 OVC035
     FM281700 15008KT 6SM -SHRA BR SCT012 OVC020
     FM282200 20007KT P6SM -SHRA BKN018 OVC030
     FM290400 20006KT P6SM BKN040=



000
FTUS41 KGYX 281500 AAE
TAFLEB
TAF AMD
KLEB 281520Z 2815/2912 VRB03KT P6SM SCT005 SCT012 OVC025
     FM281800 15005KT 2SM SHRA BR SCT002 OVC009
     FM282200 20005KT P6SM -SHRA BKN018 OVC030
     FM290300 20006KT P6SM BKN040=



000
FTUS41 KGYX 281500 AAE
TAFCON
TAF AMD
KCON 281511Z 2815/2912 10007KT P6SM SHRA SCT018 OVC035
     FM281700 15008KT 6SM -SHRA BR SCT012 OVC020
     FM282200 20007KT P6SM -SHRA BKN018 OVC030
     FM290400 20006KT P6SM BKN040=



000
FTUS41 KGYX 281500 AAD
TAFLEB
TAF AMD
KLEB 281511Z 2815/2912 VRB03KT 3SM -SHRA BR SCT002 BKN009 OVC015
     FM281800 15005KT 2SM SHRA BR SCT002 OVC009
     FM282200 20005KT P6SM -SHRA BKN018 OVC030
     FM290300 20006KT P6SM BKN040=



000
FTUS41 KGYX 281500 AAC
TAFPSM
TAF AMD
KPSM 281510Z 2815/2912 11007KT 1SM -SHRA BR VCTS OVC002CB
     FM281600 13009KT 2SM SHRA OVC010
     FM282100 20007KT P6SM -SHRA BKN018 OVC030
     FM290400 20006KT P6SM BKN040=



000
FTUS41 KGYX 281400 AAC
TAFLEB
TAF AMD
KLEB 281432Z 2815/2912 VRB03KT 1 1/2SM SHRA BR BKN003 OVC015
     FM281600 15005KT 2SM SHRA BR OVC007
     FM282200 20005KT P6SM -SHRA BKN018 OVC030
     FM290300 20006KT P6SM BKN040=



000
FTUS41 KGYX 281400 AAD
TAFCON
TAF AMD
KCON 281431Z 2815/2912 12005KT 3SM SHRA BR BKN012 OVC020
     FM281600 15008KT 6SM -SHRA BR SCT012 OVC020
     FM282200 20007KT P6SM -SHRA BKN018 OVC030
     FM290400 20006KT P6SM BKN040=



000
FTUS41 KGYX 281400 AAC
TAFCON
TAF AMD
KCON 281407Z 2814/2912 15008KT 6SM -SHRA BR SCT012 OVC020
     FM282200 20007KT P6SM -SHRA BKN018 OVC030
     FM290400 20006KT P6SM BKN040=



000
FTUS41 KGYX 281400 AAB
TAFAUG
TAF AMD
KAUG 281406Z 2814/2912 11005KT 1/4SM FG OVC002
     FM281500 13008KT 1SM TSRA BR OVC005CB
     FM281700 13008KT 2SM SHRA OVC010
     FM290100 20007KT P6SM -SHRA BKN018 OVC030
     FM290500 20006KT P6SM BKN040=



000
FTUS41 KGYX 281400 AAA
TAFPWM
TAF AMD
KPWM 281405Z 2814/2912 08007KT 1/4SM FG VV001
     FM281430 08007KT 1/2SM TSRA FG OVC003CB
     FM281600 15009KT 2SM SHRA BR OVC012
     FM282300 20007KT P6SM -SHRA BKN018 OVC030
     FM290400 20006KT P6SM BKN040=



000
FTUS41 KGYX 281300 AAB
TAFPSM
TAF AMD
KPSM 281328Z 2813/2912 09007KT 3/4SM -SHRA BR VV002
     FM281400 11007KT 1SM TSRA BR OVC005CB
     FM281500 15009KT 2SM SHRA OVC010
     FM282100 20007KT P6SM -SHRA BKN018 OVC030
     FM290400 20006KT P6SM BKN040=



000
FTUS41 KGYX 281300 AAB
TAFCON
TAF AMD
KCON 281309Z 2813/2912 16005KT 3/4SM +TSRA BR BKN008 OVC040CB
     FM281330 16009KT 2SM SHRA BR OVC008
     FM282200 20007KT P6SM -SHRA BKN018 OVC030
     FM290400 20006KT P6SM BKN040=



000
FTUS41 KGYX 281300 AAB
TAFLEB
TAF AMD
KLEB 281305Z 2813/2912 05010G18KT 2SM +TSRA BR SCT007 OVC020CB
     FM281400 15005KT 2SM SHRA BR OVC007
     FM282200 20005KT P6SM -SHRA BKN018 OVC030
     FM290300 20006KT P6SM BKN040=



000
FTUS41 KGYX 281300 AAA
TAFAUG
TAF AMD
KAUG 281303Z 2813/2912 07005KT 2SM -SHRA BR OVC002
     FM281500 14008KT 4SM -SHRA BR OVC005
     FM281700 13007KT 2SM SHRA OVC010
     FM290100 20007KT P6SM -SHRA BKN018 OVC030
     FM290500 20006KT P6SM BKN040=



000
FTUS41 KGYX 281300 AAA
TAFPSM
TAF AMD
KPSM 281302Z 2813/2912 11007KT 1/4SM FG VV001
     FM281400 15009KT 2SM SHRA OVC010
     FM282100 20007KT P6SM -SHRA BKN018 OVC030
     FM290400 20006KT P6SM BKN040=



000
FTUS41 KGYX 281100 AAA
TAFCON
TAF AMD
KCON 281152Z 2812/2912 12004KT 6SM BR BKN009 OVC050
     FM281300 15009KT 2SM SHRA BR OVC009
     FM282200 20007KT P6SM -SHRA BKN018 OVC030
     FM290400 20006KT P6SM BKN040=



000
FTUS41 KGYX 281100 AAA
TAFLEB
TAF AMD
KLEB 281140Z 2812/2912 00000KT 1 1/2SM TSRA BR OVC002CB
      TEMPO 2812/2814 3/4SM +TSRA OVC005CB
     FM281400 15005KT 2SM SHRA OVC007
     FM282200 20005KT P6SM -SHRA BKN018 OVC030
     FM290300 20006KT P6SM BKN040=



000
FTUS41 KGYX 281100
TAFPWM
TAF
KPWM 281120Z 2812/2912 00000KT 1/2SM FG OVC002
     FM281400 14008KT 4SM -SHRA BR OVC010
     FM281500 15009KT 2SM SHRA OVC012
     FM282300 20007KT P6SM -SHRA BKN018 OVC030
     FM290400 20006KT P6SM BKN040=



000
FTUS41 KGYX 281100
TAFPSM
TAF
KPSM 281120Z 2812/2912 00000KT 1/4SM FG OVC002
     FM281300 14008KT 5SM -SHRA BR OVC005
     FM281400 15009KT 2SM SHRA OVC010
     FM282100 20007KT P6SM -SHRA BKN018 OVC030
     FM290400 20006KT P6SM BKN040=



000
FTUS41 KGYX 281100
TAFLEB
TAF
KLEB 281120Z 2812/2912 00000KT 1/2SM SHRA FG VV001
     FM281400 15005KT 2SM SHRA OVC010
     FM282200 20005KT P6SM -SHRA BKN018 OVC030
     FM290300 20006KT P6SM BKN040=



000
FTUS41 KGYX 281100
TAFAUG
TAF
KAUG 281120Z 2812/2912 00000KT 1/4SM FG VV002
     FM281500 14008KT 4SM -SHRA BR OVC005
     FM281700 13007KT 2SM SHRA OVC010
     FM290100 20007KT P6SM -SHRA BKN018 OVC030
     FM290500 20006KT P6SM BKN040=



000
FTUS41 KGYX 281100
TAFCON
TAF
KCON 281120Z 2812/2912 14004KT 5SM -SHRA BR OVC030
     FM281300 15009KT 2SM SHRA OVC010
     FM282200 20007KT P6SM -SHRA BKN018 OVC030
     FM290400 20006KT P6SM BKN040=



000
FTUS41 KGYX 281100 AAB
TAFLEB
TAF AMD
KLEB 281104Z 2811/2906 00000KT 1/4SM SHRA FG VV001
     FM281300 15005KT 2SM SHRA OVC010
     FM282200 20005KT P6SM -SHRA BKN018 OVC030
     FM290300 20006KT P6SM BKN040=



000
FTUS41 KGYX 281100 AAC
TAFPSM
TAF AMD
KPSM 281102Z 2811/2906 00000KT 1/4SM FG OVC002
     FM281300 14008KT 5SM -SHRA BR OVC005
     FM281400 15009KT 2SM SHRA OVC010
     FM282100 20007KT P6SM -SHRA BKN018 OVC030
     FM290400 20006KT P6SM BKN040=



000
FTUS41 KGYX 281100 AAB
TAFAUG
TAF AMD
KAUG 281100Z 2811/2906 00000KT 1/4SM FG VV002
     FM281500 14008KT 5SM -SHRA BR OVC005
     FM281700 13007KT 2SM SHRA OVC010
     FM290100 20007KT P6SM -SHRA BKN018 OVC030
     FM290500 20006KT P6SM BKN040=



000
FTUS41 KGYX 280800 AAA
TAFCON
TAF AMD
KCON 280842Z 2809/2906 VRB03KT 3SM BR BKN020
     FM281200 14008KT 5SM -SHRA BR OVC005
     FM281400 15009KT 2SM SHRA OVC010
     FM282200 20007KT P6SM -SHRA BKN018 OVC030
     FM290400 20006KT P6SM BKN040=



000
FTUS41 KGYX 280800 AAA
TAFAUG
TAF AMD
KAUG 280842Z 2809/2906 00000KT 1/2SM FG VV002
     FM281500 14008KT 5SM -SHRA BR OVC005
     FM281700 13007KT 2SM SHRA OVC010
     FM290100 20007KT P6SM -SHRA BKN018 OVC030
     FM290500 20006KT P6SM BKN040=



000
FTUS41 KGYX 280800 AAB
TAFPSM
TAF AMD
KPSM 280842Z 2809/2906 00000KT 1/4SM FG OVC002
     FM281200 14008KT 5SM -SHRA BR OVC005
     FM281400 15009KT 2SM SHRA OVC010
     FM282200 20007KT P6SM -SHRA BKN018 OVC030
     FM290400 20006KT P6SM BKN040=



000
FTUS41 KGYX 280800 AAA
TAFLEB
TAF AMD
KLEB 280842Z 2809/2906 00000KT 1/4SM FG VV001
     FM281100 14005KT 5SM -SHRA BR OVC005
     FM281200 15005KT 2SM SHRA OVC010
     FM282200 20005KT P6SM -SHRA BKN018 OVC030
     FM290300 20006KT P6SM BKN040=



000
FTUS41 KGYX 280800 AAB
TAFPWM
TAF AMD
KPWM 280842Z 2809/2906 00000KT 1/2SM FG OVC002
     FM281300 14008KT 5SM -SHRA BR OVC010
     FM281500 15009KT 2SM SHRA OVC012
     FM282300 20007KT P6SM -SHRA BKN018 OVC030
     FM290400 20006KT P6SM BKN040=



000
FTUS41 KGYX 280700 AAA
TAFPWM
TAF AMD
KPWM 280708Z 2807/2906 00000KT 1/4SM FG OVC002
     FM281300 14008KT 5SM -SHRA BR OVC010
     FM281500 15009KT 2SM SHRA OVC012
     FM282300 20007KT P6SM -SHRA BKN018 OVC030
     FM290400 20006KT P6SM BKN040=



000
FTUS41 KGYX 280500 AAA
TAFPSM
TAF AMD
KPSM 280536Z 2806/2906 19003KT 1/4SM FG OVC002
     FM281200 14008KT 5SM -SHRA BR OVC005
     FM281400 15009KT 2SM SHRA OVC010
     FM282200 20007KT P6SM -SHRA BKN018 OVC030
     FM290400 20006KT P6SM BKN040=



000
FTUS41 KGYX 280500
TAFLEB
TAF
KLEB 280534Z 2806/2906 00000KT 1/4SM FG VV001
     FM281100 14005KT 5SM -SHRA BR OVC005
     FM281200 15005KT 2SM SHRA OVC010
     FM282200 20005KT P6SM -SHRA BKN018 OVC030
     FM290300 20006KT P6SM BKN040=



000
FTUS41 KGYX 280500
TAFCON
TAF
KCON 280534Z 2806/2906 VRB03KT 3SM BR BKN003
     FM281200 14008KT 5SM -SHRA BR OVC005
     FM281400 15009KT 2SM SHRA OVC010
     FM282200 20007KT P6SM -SHRA BKN018 OVC030
     FM290400 20006KT P6SM BKN040=



000
FTUS41 KGYX 280500
TAFAUG
TAF
KAUG 280534Z 2806/2906 00000KT 1/4SM FG VV002
     FM281500 14008KT 5SM -SHRA BR OVC005
     FM281700 13007KT 2SM SHRA OVC010
     FM290100 20007KT P6SM -SHRA BKN018 OVC030
     FM290500 20006KT P6SM BKN040=



000
FTUS41 KGYX 280500
TAFPSM
TAF
KPSM 280534Z 2806/2906 19003KT 1/2SM FG OVC002
     FM281200 14008KT 5SM -SHRA BR OVC005
     FM281400 15009KT 2SM SHRA OVC010
     FM282200 20007KT P6SM -SHRA BKN018 OVC030
     FM290400 20006KT P6SM BKN040=



000
FTUS41 KGYX 280500
TAFPWM
TAF
KPWM 280534Z 2806/2906 19003KT 4SM BR OVC005
     FM281300 14008KT 5SM -SHRA BR OVC010
     FM281500 15009KT 2SM SHRA OVC012
     FM282300 20007KT P6SM -SHRA BKN018 OVC030
     FM290400 20006KT P6SM BKN040=



000
FTUS41 KGYX 280300 AAA
TAFAUG
TAF AMD
KAUG 280329Z 2803/2824 00000KT 2SM BR OVC002
      TEMPO 2804/2806 1/2SM FG VV001
     FM280600 17004KT 1/4SM FG VV002
     FM281400 12007KT 3SM -SHRA BR BKN012=



000
FTUS41 KGYX 280300 AAA
TAFLEB
TAF AMD
KLEB 280325Z 2803/2824 00000KT 1/4SM FG VV001
     FM281200 17004KT 4SM -SHRA BR BKN015
     FM281800 19006KT P6SM -SHRA BKN030=



000
FTUS41 KGYX 272300 RRA
TAFPSM
TAF
KPSM 272345Z 2800/2824 16006KT P6SM BKN008
      TEMPO 2800/2802 SCT008 BKN025
     FM280500 VRB04KT 2SM BR BKN003
     FM281200 15009KT 5SM -SHRA BR SCT005 OVC012=



000
FTUS41 KGYX 272300 RRA
TAFPWM
TAF
KPWM 272345Z 2800/2824 18005KT P6SM OVC015
     FM280400 19003KT 2SM BR BKN003
     FM281200 14008KT 5SM -SHRA BR OVC015
     FM281900 18009KT P6SM -SHRA BKN025=



000
FTUS41 KGYX 272300 RRA
TAFLEB
TAF
KLEB 272345Z 2800/2824 VRB04KT P6SM SCT045
     FM280500 VRB03KT 3SM BR BKN005
     FM280800 VRB03KT 1/2SM FG VV002
     FM281200 18004KT 4SM -SHRA BR BKN015
     FM281800 19006KT P6SM -SHRA BKN030=



000
FTUS41 KGYX 272300 RRA
TAFCON
TAF
KCON 272345Z 2800/2824 17005KT P6SM SCT200
     FM280600 VRB03KT 1/2SM FG BKN002
     FM281300 15006KT 5SM -SHRA BR BKN015
     FM281900 19007KT P6SM -SHRA BKN030=



000
FTUS41 KGYX 272300 RRA
TAFAUG
TAF
KAUG 272345Z 2800/2824 17006G14KT 5SM -SHRA BR BKN010
     FM280400 17004KT 1/4SM FG VV002
     FM281400 12007KT 3SM -SHRA BR BKN012=



000
FTUS41 KGYX 272200 AAA
TAFLEB
TAF AMD
KLEB 272249Z 2723/2818 18007KT P6SM SCT025 BKN200
      TEMPO 2723/2724 3SM TSRA BR BKN025CB
     FM281000 16004KT 3SM -RA BR BKN009 OVC015=



000
FTUS41 KGYX 272000 AAA
TAFPWM
TAF AMD
KPWM 272026Z 2720/2818 18008G16KT 6SM -SHRA BR SCT010 BKN050
      TEMPO 2720/2724 4SM BR BKN008
     FM280000 18007KT 5SM BR BKN010
     FM280500 19004KT 2SM BR BKN003
     FM281200 12006KT 5SM -SHRA BR OVC015=



000
FTUS41 KGYX 271700
TAFPWM
TAF
KPWM 271723Z 2718/2818 27007KT 3SM TSRA BR BKN015CB
     FM271830 18009KT P6SM -SHRA BKN030
     FM271900 17009KT P6SM SCT050
     FM280000 17005KT 6SM BR SCT003 BKN010
     FM280600 15005KT 1SM BR BKN003 OVC015
     FM281200 12006KT 2SM -RA BR BKN003 OVC015=



000
FTUS41 KGYX 271700
TAFLEB
TAF
KLEB 271723Z 2718/2818 19008KT P6SM SCT050
     FM281000 16004KT 3SM -RA BR BKN009 OVC015=



000
FTUS41 KGYX 271700
TAFPSM
TAF
KPSM 271723Z 2718/2818 17009KT P6SM SCT050
     FM280600 16004KT 2SM BR BKN007
     FM281200 12008KT 2SM -RA BR BKN007 OVC015=



000
FTUS41 KGYX 271700
TAFCON
TAF
KCON 271723Z 2718/2818 18008KT P6SM SCT050
     FM280800 10004KT 5SM BR BKN009 OVC015
     FM281200 10006KT 2SM -RA BR BKN009 OVC015=



000
FTUS41 KGYX 271700
TAFAUG
TAF
KAUG 271723Z 2718/2818 17010G15KT P6SM BKN010
      TEMPO 2718/2720 3SM -TSRA BR BKN025CB
     FM280000 17006KT 6SM BR SCT004 BKN010
     FM280500 17005KT 1/2SM FG VV002
     FM281300 11007KT 2SM -RA BR BKN005 OVC010=



000
FTUS41 KGYX 271600 AAB
TAFPSM
TAF AMD
KPSM 271605Z 2716/2812 18009KT P6SM OVC050
      TEMPO 2716/2718 3SM -TSRA BR BKN025CB
     FM271900 18008KT P6SM VCSH OVC050
     FM280300 17004KT 5SM BR OVC015
     FM280600 17004KT 2SM BR BKN008=



000
FTUS41 KGYX 271600 AAB
TAFAUG
TAF AMD
KAUG 271605Z 2716/2812 17009G15KT P6SM BKN025
      TEMPO 2717/2720 3SM -TSRA BR BKN025CB
     FM272100 16007KT P6SM BKN035
     FM280300 17004KT 1SM BR SCT004 BKN012=



000
FTUS41 KGYX 271600 AAB
TAFLEB
TAF AMD
KLEB 271605Z 2716/2812 19008KT P6SM SCT050
     FM280300 17004KT 5SM BR OVC025=



000
FTUS41 KGYX 271600 AAB
TAFPWM
TAF AMD
KPWM 271605Z 2716/2812 18009KT P6SM BKN100
      TEMPO 2716/2718 3SM -TSRA BR BKN025CB
     FM272000 17011KT P6SM VCSH OVC050
     FM280300 18005KT 1SM BR SCT004 BKN012=



000
FTUS41 KGYX 271600 AAB
TAFCON
TAF AMD
KCON 271605Z 2716/2812 20009KT P6SM OVC050
      TEMPO 2716/2717 2SM TSRA BR BKN025CB
     FM271800 18008KT P6SM OVC050
     FM280300 17004KT 5SM BR OVC015=



000
FTUS41 KGYX 271600 AAB
TAFCON
TAF AMD
KCON 271605Z 2716/2812 20009KT P6SM OVC050
      TEMPO 2716/2717 2SM TSRA BR BKN025CB
     FM271800 18008KT P6SM OVC050
     FM280300 17004KT 5SM BR OVC015=



000
FTUS41 KGYX 271600 AAB
TAFPWM
TAF AMD
KPWM 271605Z 2716/2812 18009KT P6SM BKN100
      TEMPO 2716/2718 3SM -TSRA BR BKN025CB
     FM272000 17011KT P6SM VCSH OVC050
     FM280300 18005KT 1SM BR SCT004 BKN012=



000
FTUS41 KGYX 271600 AAB
TAFPSM
TAF AMD
KPSM 271605Z 2716/2812 18009KT P6SM OVC050
      TEMPO 2716/2718 3SM -TSRA BR BKN025CB
     FM271900 18008KT P6SM VCSH OVC050
     FM280300 17004KT 5SM BR OVC015
     FM280600 17004KT 2SM BR BKN008=



000
FTUS41 KGYX 271600 AAB
TAFAUG
TAF AMD
KAUG 271605Z 2716/2812 17009G15KT P6SM BKN025
      TEMPO 2717/2720 3SM -TSRA BR BKN025CB
     FM272100 16007KT P6SM BKN035
     FM280300 17004KT 1SM BR SCT004 BKN012=



000
FTUS41 KGYX 271600 AAB
TAFLEB
TAF AMD
KLEB 271605Z 2716/2812 19008KT P6SM SCT050
     FM280300 17004KT 5SM BR OVC025=



000
FTUS41 KGYX 271300 AAA
TAFCON
TAF AMD
KCON 271303Z 2713/2812 20010KT P6SM OVC050
      TEMPO 2715/2718 2SM -TSRA BR BKN025CB
     FM271800 18008KT P6SM OVC050
     FM280300 17004KT 5SM BR OVC015=



000
FTUS41 KGYX 271300 AAA
TAFPWM
TAF AMD
KPWM 271303Z 2713/2812 18009KT P6SM BKN100
      TEMPO 2716/2720 3SM -TSRA BR BKN025CB
     FM272000 17011KT P6SM VCSH OVC050
     FM280300 18005KT 1SM BR SCT004 BKN012=



000
FTUS41 KGYX 271300 AAA
TAFPSM
TAF AMD
KPSM 271303Z 2713/2812 18010KT P6SM BKN008 OVC050
      TEMPO 2716/2719 3SM -TSRA BR BKN025CB
     FM271900 18008KT P6SM VCSH OVC050
     FM280300 17004KT 5SM BR OVC015
     FM280600 17004KT 2SM BR BKN008=



000
FTUS41 KGYX 271300 AAA
TAFAUG
TAF AMD
KAUG 271303Z 2713/2812 17006KT P6SM BKN250
      TEMPO 2717/2721 3SM -TSRA BR BKN025CB
     FM272100 16007KT P6SM BKN035
     FM280300 17004KT 1SM BR SCT004 BKN012=



000
FTUS41 KGYX 271300 AAA
TAFLEB
TAF AMD
KLEB 271303Z 2713/2812 19006KT P6SM OVC015
      TEMPO 2714/2717 2SM -TSRA BR BKN025CB
     FM271700 18008KT P6SM OVC050
     FM280300 17004KT 5SM BR OVC025=



000
FTUS41 KGYX 271100
TAFPWM
TAF
KPWM 271120Z 2712/2812 20005KT P6SM BKN100
     FM271700 17010KT 5SM SHRA VCTS SCT025CB BKN050
     FM272100 17011KT P6SM VCSH OVC050
     FM280300 18005KT 1SM BR SCT004 BKN012=



000
FTUS41 KGYX 271100
TAFLEB
TAF
KLEB 271120Z 2712/2812 20008KT P6SM VCSH OVC050
      TEMPO 2715/2718 2SM TSRA BR BKN025CB
     FM271800 18008KT P6SM VCSH OVC050
     FM280300 17004KT 5SM BR OVC025=



000
FTUS41 KGYX 271100
TAFAUG
TAF
KAUG 271120Z 2712/2812 17006KT P6SM BKN250
     FM271800 16007KT 5SM SHRA VCTS SCT025CB BKN040
     FM272100 16007KT 6SM BR VCSH BKN035
     FM280300 17004KT 1SM BR SCT004 BKN012=



000
FTUS41 KGYX 271100
TAFPSM
TAF
KPSM 271120Z 2712/2812 21005KT P6SM SCT250
     FM271400 18010KT P6SM OVC050
      TEMPO 2716/2719 3SM TSRA BR BKN025CB
     FM271900 18008KT P6SM VCSH OVC050
     FM280300 17004KT 5SM BR OVC015
     FM280600 17004KT 2SM BR BKN008=



000
FTUS41 KGYX 271100
TAFCON
TAF
KCON 271120Z 2712/2812 00000KT 4SM BR SCT050 BKN100
     FM271300 20010KT P6SM VCSH OVC050
      TEMPO 2715/2718 2SM TSRA BR BKN025CB
     FM271800 18008KT P6SM VCSH OVC050
     FM280300 17004KT 5SM BR OVC015=



000
FTUS41 KGYX 271000 AAA
TAFLEB
TAF AMD
KLEB 271029Z 2710/2806 00000KT 3SM BR BKN001
     FM271200 20008KT P6SM VCSH OVC050
      TEMPO 2715/2718 3SM TSRA BR BKN025CB
     FM271800 18008KT P6SM VCSH OVC050
     FM280300 17004KT 5SM BR OVC025=



000
FTUS41 KGYX 271000 AAB
TAFAUG
TAF AMD
KAUG 271028Z 2710/2806 VRB03KT 2SM BR SCT001
     FM271200 17006KT P6SM BKN250
     FM271800 16007KT 5SM SHRA VCTS SCT025CB BKN040
     FM272100 16007KT 6SM BR VCSH BKN035
     FM280300 17004KT 3SM BR SCT004 BKN012=



000
FTUS41 KGYX 270700 AAA
TAFAUG
TAF AMD
KAUG 270703Z 2707/2806 VRB03KT 1/2SM FG VV001
     FM271200 17006KT P6SM BKN250
     FM271800 16007KT 5SM SHRA VCTS SCT025CB BKN040
     FM272100 16007KT 6SM BR VCSH BKN035
     FM280300 17004KT 3SM BR SCT004 BKN012=



000
FTUS41 KGYX 270500
TAFLEB
TAF
KLEB 270538Z 2706/2806 VRB03KT 5SM BR SCT250
     FM270800 00000KT 2SM BR SCT050 BKN100
     FM271200 20008KT P6SM VCSH OVC050
      TEMPO 2715/2718 3SM TSRA BR BKN025CB
     FM271800 18008KT P6SM VCSH OVC050
     FM280300 17004KT 5SM BR OVC025=



000
FTUS41 KGYX 270500
TAFPWM
TAF
KPWM 270538Z 2706/2806 24004KT 6SM BR SCT250
     FM270900 22004KT 5SM BR BKN250
     FM271200 20005KT P6SM BKN100
     FM271700 17010KT 5SM SHRA VCTS SCT025CB BKN050
     FM272000 17011KT P6SM VCSH OVC050
     FM280300 18005KT 1SM BR SCT004 BKN012=



000
FTUS41 KGYX 270500
TAFCON
TAF
KCON 270538Z 2706/2806 VRB03KT P6SM SCT250
     FM271000 00000KT 4SM BR SCT050 BKN100
     FM271300 20010KT P6SM VCSH OVC050
      TEMPO 2715/2718 3SM TSRA BR BKN025CB
     FM271800 18008KT P6SM VCSH OVC050
     FM280300 17004KT 5SM BR OVC015=



000
FTUS41 KGYX 270500
TAFPSM
TAF
KPSM 270538Z 2706/2806 21005KT P6SM SCT250
     FM271400 18010KT P6SM OVC050
      TEMPO 2716/2719 3SM TSRA BR BKN025CB
     FM271900 18008KT P6SM VCSH OVC050
     FM280300 17004KT 5SM BR OVC015=



000
FTUS41 KGYX 270500
TAFAUG
TAF
KAUG 270538Z 2706/2806 VRB03KT P6SM SCT250
     FM270900 00000KT 4SM BR SCT250
     FM271400 17006KT P6SM BKN250
     FM271800 16007KT 5SM SHRA VCTS SCT025CB BKN040
     FM272100 16007KT 6SM BR VCSH BKN035
     FM280300 17004KT 3SM BR SCT004 BKN012=



000
FTUS41 KGYX 262300 RRA
TAFCON
TAF
KCON 262352Z 2700/2724 VRB03KT P6SM SCT100
     FM271200 17007KT P6SM -SHRA BKN040=



000
FTUS41 KGYX 262300 RRA
TAFPWM
TAF
KPWM 262352Z 2700/2724 20006KT P6SM SCT060
     FM271300 18009KT P6SM -SHRA BKN040=



000
FTUS41 KGYX 262300 RRA
TAFAUG
TAF
KAUG 262352Z 2700/2724 19007KT P6SM SCT100
     FM270800 20004KT P6SM BKN020
     FM271400 17005KT P6SM -SHRA BKN035=



000
FTUS41 KGYX 262300 RRA
TAFPSM
TAF
KPSM 262352Z 2700/2724 23005KT P6SM SCT100
     FM271200 18009KT P6SM -SHRA BKN040=



000
FTUS41 KGYX 262300 RRA
TAFLEB
TAF
KLEB 262352Z 2700/2724 VRB03KT P6SM SCT080
     FM270800 VRB03KT 2SM BR BKN010
     FM271200 19007KT P6SM -SHRA BKN035=



    US Dept of Commerce
    National Oceanic and Atmospheric Administration
    National Weather Service
    1325 East West Highway
    Silver Spring, MD 20910
    Page Author: NWS Internet Services Team
Disclaimer
Information Quality
Credits
Glossary
Privacy Policy
Freedom of Information Act (FOIA)
About Us
Career Opportunities